sensor_id;sensor_type;location;lat;lon;timestamp;P1;durP1;ratioP1;P2;durP2;ratioP2
37431;SDS011;23292;51.300;6.252;2023-11-21T00:02:23;52.20;;;20.67;;
37431;SDS011;23292;51.300;6.252;2023-11-21T00:04:50;51.08;;;20.10;;
37431;SDS011;23292;51.300;6.252;2023-11-21T00:07:17;54.65;;;21.67;;
37431;SDS011;23292;51.300;6.252;2023-11-21T00:09:44;50.67;;;20.73;;
37431;SDS011;23292;51.300;6.252;2023-11-21T00:12:10;49.47;;;20.40;;
37431;SDS011;23292;51.300;6.252;2023-11-21T00:14:37;56.95;;;21.58;;
37431;SDS011;23292;51.300;6.252;2023-11-21T00:17:04;55.25;;;21.88;;
37431;SDS011;23292;51.300;6.252;2023-11-21T00:19:33;52.50;;;20.98;;
37431;SDS011;23292;51.300;6.252;2023-11-21T00:22:01;47.78;;;19.17;;
37431;SDS011;23292;51.300;6.252;2023-11-21T00:24:28;49.78;;;21.67;;
37431;SDS011;23292;51.300;6.252;2023-11-21T00:26:54;53.45;;;20.48;;
37431;SDS011;23292;51.300;6.252;2023-11-21T00:29:21;48.55;;;20.00;;
37431;SDS011;23292;51.300;6.252;2023-11-21T00:31:48;45.25;;;20.25;;
37431;SDS011;23292;51.300;6.252;2023-11-21T00:34:15;48.53;;;21.67;;
37431;SDS011;23292;51.300;6.252;2023-11-21T00:36:42;42.97;;;19.27;;
37431;SDS011;23292;51.300;6.252;2023-11-21T00:39:09;51.88;;;21.30;;
37431;SDS011;23292;51.300;6.252;2023-11-21T00:41:36;49.00;;;18.98;;
37431;SDS011;23292;51.300;6.252;2023-11-21T00:44:03;48.33;;;20.30;;
37431;SDS011;23292;51.300;6.252;2023-11-21T00:46:30;44.53;;;20.20;;
37431;SDS011;23292;51.300;6.252;2023-11-21T00:48:57;45.47;;;20.17;;
37431;SDS011;23292;51.300;6.252;2023-11-21T00:51:24;54.10;;;20.25;;
37431;SDS011;23292;51.300;6.252;2023-11-21T00:53:51;51.15;;;19.92;;
37431;SDS011;23292;51.300;6.252;2023-11-21T00:56:18;48.30;;;21.08;;
37431;SDS011;23292;51.300;6.252;2023-11-21T00:58:45;43.90;;;19.52;;
37431;SDS011;23292;51.300;6.252;2023-11-21T01:01:16;43.65;;;19.80;;
37431;SDS011;23292;51.300;6.252;2023-11-21T01:03:45;48.58;;;19.67;;
37431;SDS011;23292;51.300;6.252;2023-11-21T01:06:12;41.75;;;18.30;;
37431;SDS011;23292;51.300;6.252;2023-11-21T01:08:41;36.85;;;17.63;;
37431;SDS011;23292;51.300;6.252;2023-11-21T01:11:09;44.58;;;18.98;;
37431;SDS011;23292;51.300;6.252;2023-11-21T01:13:38;44.80;;;19.48;;
37431;SDS011;23292;51.300;6.252;2023-11-21T01:16:06;50.17;;;21.58;;
37431;SDS011;23292;51.300;6.252;2023-11-21T01:18:33;44.95;;;18.98;;
37431;SDS011;23292;51.300;6.252;2023-11-21T01:21:01;47.15;;;19.55;;
37431;SDS011;23292;51.300;6.252;2023-11-21T01:23:28;45.38;;;20.63;;
37431;SDS011;23292;51.300;6.252;2023-11-21T01:25:56;48.15;;;21.50;;
37431;SDS011;23292;51.300;6.252;2023-11-21T01:28:23;49.30;;;23.17;;
37431;SDS011;23292;51.300;6.252;2023-11-21T01:30:50;50.38;;;22.58;;
37431;SDS011;23292;51.300;6.252;2023-11-21T01:33:18;52.28;;;23.58;;
37431;SDS011;23292;51.300;6.252;2023-11-21T01:35:45;81.35;;;36.92;;
37431;SDS011;23292;51.300;6.252;2023-11-21T01:38:13;134.85;;;58.65;;
37431;SDS011;23292;51.300;6.252;2023-11-21T01:40:41;138.02;;;62.58;;
37431;SDS011;23292;51.300;6.252;2023-11-21T01:43:08;135.20;;;62.47;;
37431;SDS011;23292;51.300;6.252;2023-11-21T01:45:35;151.35;;;68.78;;
37431;SDS011;23292;51.300;6.252;2023-11-21T01:48:02;138.35;;;62.38;;
37431;SDS011;23292;51.300;6.252;2023-11-21T01:50:29;149.27;;;67.55;;
37431;SDS011;23292;51.300;6.252;2023-11-21T01:52:57;128.82;;;59.90;;
37431;SDS011;23292;51.300;6.252;2023-11-21T01:55:24;120.28;;;55.22;;
37431;SDS011;23292;51.300;6.252;2023-11-21T01:57:55;121.18;;;52.65;;
37431;SDS011;23292;51.300;6.252;2023-11-21T02:00:23;87.90;;;42.40;;
37431;SDS011;23292;51.300;6.252;2023-11-21T02:02:51;86.20;;;39.90;;
37431;SDS011;23292;51.300;6.252;2023-11-21T02:05:18;83.10;;;37.13;;
37431;SDS011;23292;51.300;6.252;2023-11-21T02:07:48;72.25;;;32.10;;
37431;SDS011;23292;51.300;6.252;2023-11-21T02:10:15;65.78;;;30.00;;
37431;SDS011;23292;51.300;6.252;2023-11-21T02:12:43;74.47;;;31.85;;
37431;SDS011;23292;51.300;6.252;2023-11-21T02:15:14;70.28;;;29.90;;
37431;SDS011;23292;51.300;6.252;2023-11-21T02:17:47;62.72;;;25.70;;
37431;SDS011;23292;51.300;6.252;2023-11-21T02:22:50;57.47;;;24.85;;
37431;SDS011;23292;51.300;6.252;2023-11-21T02:25:24;59.85;;;24.48;;
37431;SDS011;23292;51.300;6.252;2023-11-21T02:28:01;56.33;;;23.90;;
37431;SDS011;23292;51.300;6.252;2023-11-21T02:30:29;58.75;;;23.90;;
37431;SDS011;23292;51.300;6.252;2023-11-21T02:32:58;57.90;;;24.05;;
37431;SDS011;23292;51.300;6.252;2023-11-21T02:35:26;60.05;;;22.90;;
37431;SDS011;23292;51.300;6.252;2023-11-21T02:37:53;55.63;;;23.13;;
37431;SDS011;23292;51.300;6.252;2023-11-21T02:40:21;55.72;;;21.20;;
37431;SDS011;23292;51.300;6.252;2023-11-21T02:42:48;65.18;;;24.73;;
37431;SDS011;23292;51.300;6.252;2023-11-21T02:45:18;62.95;;;25.17;;
37431;SDS011;23292;51.300;6.252;2023-11-21T02:47:47;58.97;;;24.65;;
37431;SDS011;23292;51.300;6.252;2023-11-21T02:50:19;55.25;;;22.23;;
37431;SDS011;23292;51.300;6.252;2023-11-21T02:52:46;63.92;;;24.05;;
37431;SDS011;23292;51.300;6.252;2023-11-21T02:55:13;65.18;;;25.35;;
37431;SDS011;23292;51.300;6.252;2023-11-21T02:57:40;64.70;;;24.40;;
37431;SDS011;23292;51.300;6.252;2023-11-21T03:00:07;73.82;;;25.27;;
37431;SDS011;23292;51.300;6.252;2023-11-21T03:02:36;50.72;;;22.38;;
37431;SDS011;23292;51.300;6.252;2023-11-21T03:05:06;54.15;;;23.63;;
37431;SDS011;23292;51.300;6.252;2023-11-21T03:07:38;58.95;;;23.67;;
37431;SDS011;23292;51.300;6.252;2023-11-21T03:10:09;58.72;;;23.65;;
37431;SDS011;23292;51.300;6.252;2023-11-21T03:12:37;70.13;;;24.75;;
37431;SDS011;23292;51.300;6.252;2023-11-21T03:15:06;65.35;;;23.73;;
37431;SDS011;23292;51.300;6.252;2023-11-21T03:17:33;64.85;;;24.48;;
37431;SDS011;23292;51.300;6.252;2023-11-21T03:20:02;68.25;;;25.58;;
37431;SDS011;23292;51.300;6.252;2023-11-21T03:22:30;61.85;;;25.15;;
37431;SDS011;23292;51.300;6.252;2023-11-21T03:24:57;56.47;;;20.90;;
37431;SDS011;23292;51.300;6.252;2023-11-21T03:27:25;68.82;;;24.40;;
37431;SDS011;23292;51.300;6.252;2023-11-21T03:29:52;69.70;;;24.95;;
37431;SDS011;23292;51.300;6.252;2023-11-21T03:32:20;53.97;;;19.98;;
37431;SDS011;23292;51.300;6.252;2023-11-21T03:34:54;68.78;;;24.73;;
37431;SDS011;23292;51.300;6.252;2023-11-21T03:37:26;63.42;;;22.45;;
37431;SDS011;23292;51.300;6.252;2023-11-21T03:39:57;63.88;;;22.65;;
37431;SDS011;23292;51.300;6.252;2023-11-21T03:42:24;71.07;;;22.98;;
37431;SDS011;23292;51.300;6.252;2023-11-21T03:44:54;62.30;;;21.75;;
37431;SDS011;23292;51.300;6.252;2023-11-21T03:47:20;61.80;;;22.40;;
37431;SDS011;23292;51.300;6.252;2023-11-21T03:49:48;54.63;;;19.30;;
37431;SDS011;23292;51.300;6.252;2023-11-21T03:52:15;54.95;;;18.83;;
37431;SDS011;23292;51.300;6.252;2023-11-21T03:54:42;58.72;;;19.20;;
37431;SDS011;23292;51.300;6.252;2023-11-21T03:57:09;55.00;;;18.98;;
37431;SDS011;23292;51.300;6.252;2023-11-21T03:59:39;53.70;;;19.30;;
37431;SDS011;23292;51.300;6.252;2023-11-21T04:02:06;53.42;;;19.23;;
37431;SDS011;23292;51.300;6.252;2023-11-21T04:04:34;48.85;;;18.23;;
37431;SDS011;23292;51.300;6.252;2023-11-21T04:07:04;58.58;;;20.25;;
37431;SDS011;23292;51.300;6.252;2023-11-21T04:09:32;54.20;;;19.27;;
37431;SDS011;23292;51.300;6.252;2023-11-21T04:11:59;54.30;;;20.13;;
37431;SDS011;23292;51.300;6.252;2023-11-21T04:14:25;53.25;;;20.30;;
37431;SDS011;23292;51.300;6.252;2023-11-21T04:16:52;53.35;;;19.80;;
37431;SDS011;23292;51.300;6.252;2023-11-21T04:19:20;51.45;;;19.77;;
37431;SDS011;23292;51.300;6.252;2023-11-21T04:21:47;61.67;;;21.70;;
37431;SDS011;23292;51.300;6.252;2023-11-21T04:24:14;66.25;;;22.83;;
37431;SDS011;23292;51.300;6.252;2023-11-21T04:26:41;62.58;;;23.13;;
37431;SDS011;23292;51.300;6.252;2023-11-21T04:29:08;64.90;;;23.50;;
37431;SDS011;23292;51.300;6.252;2023-11-21T04:31:34;60.05;;;21.95;;
37431;SDS011;23292;51.300;6.252;2023-11-21T04:34:01;59.67;;;23.15;;
37431;SDS011;23292;51.300;6.252;2023-11-21T04:36:30;61.25;;;22.27;;
37431;SDS011;23292;51.300;6.252;2023-11-21T04:38:57;62.85;;;23.30;;
37431;SDS011;23292;51.300;6.252;2023-11-21T04:41:24;61.30;;;22.88;;
37431;SDS011;23292;51.300;6.252;2023-11-21T04:43:51;55.78;;;22.42;;
37431;SDS011;23292;51.300;6.252;2023-11-21T04:46:18;58.15;;;21.33;;
37431;SDS011;23292;51.300;6.252;2023-11-21T04:48:45;58.17;;;22.83;;
37431;SDS011;23292;51.300;6.252;2023-11-21T04:51:12;56.90;;;22.67;;
37431;SDS011;23292;51.300;6.252;2023-11-21T04:53:39;58.33;;;24.35;;
37431;SDS011;23292;51.300;6.252;2023-11-21T04:56:05;60.28;;;23.48;;
37431;SDS011;23292;51.300;6.252;2023-11-21T04:58:32;64.38;;;25.35;;
37431;SDS011;23292;51.300;6.252;2023-11-21T05:00:59;64.25;;;26.45;;
37431;SDS011;23292;51.300;6.252;2023-11-21T05:03:27;64.95;;;26.83;;
37431;SDS011;23292;51.300;6.252;2023-11-21T05:05:56;62.90;;;25.33;;
37431;SDS011;23292;51.300;6.252;2023-11-21T05:08:22;58.47;;;24.92;;
37431;SDS011;23292;51.300;6.252;2023-11-21T05:10:49;65.65;;;26.58;;
37431;SDS011;23292;51.300;6.252;2023-11-21T05:13:16;62.63;;;27.77;;
37431;SDS011;23292;51.300;6.252;2023-11-21T05:15:43;65.85;;;26.90;;
37431;SDS011;23292;51.300;6.252;2023-11-21T05:18:11;77.30;;;29.20;;
37431;SDS011;23292;51.300;6.252;2023-11-21T05:20:40;74.38;;;29.40;;
37431;SDS011;23292;51.300;6.252;2023-11-21T05:23:07;68.60;;;29.63;;
37431;SDS011;23292;51.300;6.252;2023-11-21T05:25:34;74.63;;;28.92;;
37431;SDS011;23292;51.300;6.252;2023-11-21T05:28:05;74.68;;;28.60;;
37431;SDS011;23292;51.300;6.252;2023-11-21T05:30:33;72.95;;;27.83;;
37431;SDS011;23292;51.300;6.252;2023-11-21T05:32:59;78.32;;;28.45;;
37431;SDS011;23292;51.300;6.252;2023-11-21T05:35:26;73.47;;;29.65;;
37431;SDS011;23292;51.300;6.252;2023-11-21T05:37:53;70.30;;;27.92;;
37431;SDS011;23292;51.300;6.252;2023-11-21T05:40:20;85.55;;;33.35;;
37431;SDS011;23292;51.300;6.252;2023-11-21T05:42:48;93.10;;;32.95;;
37431;SDS011;23292;51.300;6.252;2023-11-21T05:45:17;96.82;;;34.15;;
37431;SDS011;23292;51.300;6.252;2023-11-21T05:47:45;95.72;;;33.85;;
37431;SDS011;23292;51.300;6.252;2023-11-21T05:50:14;103.43;;;35.08;;
37431;SDS011;23292;51.300;6.252;2023-11-21T05:52:42;89.82;;;32.90;;
37431;SDS011;23292;51.300;6.252;2023-11-21T05:55:10;92.68;;;33.58;;
37431;SDS011;23292;51.300;6.252;2023-11-21T05:57:38;90.55;;;33.45;;
37431;SDS011;23292;51.300;6.252;2023-11-21T06:00:07;99.03;;;34.80;;
37431;SDS011;23292;51.300;6.252;2023-11-21T06:02:47;95.60;;;34.05;;
37431;SDS011;23292;51.300;6.252;2023-11-21T06:05:24;86.47;;;32.75;;
37431;SDS011;23292;51.300;6.252;2023-11-21T06:07:53;82.15;;;32.22;;
37431;SDS011;23292;51.300;6.252;2023-11-21T06:10:22;80.50;;;32.40;;
37431;SDS011;23292;51.300;6.252;2023-11-21T06:12:51;78.25;;;29.83;;
37431;SDS011;23292;51.300;6.252;2023-11-21T06:15:20;77.25;;;30.30;;
37431;SDS011;23292;51.300;6.252;2023-11-21T06:17:48;78.43;;;30.50;;
37431;SDS011;23292;51.300;6.252;2023-11-21T06:20:19;75.45;;;30.02;;
37431;SDS011;23292;51.300;6.252;2023-11-21T06:22:47;81.63;;;29.92;;
37431;SDS011;23292;51.300;6.252;2023-11-21T06:25:15;77.93;;;29.40;;
37431;SDS011;23292;51.300;6.252;2023-11-21T06:27:42;74.15;;;30.15;;
37431;SDS011;23292;51.300;6.252;2023-11-21T06:30:14;81.10;;;30.38;;
37431;SDS011;23292;51.300;6.252;2023-11-21T06:32:42;90.30;;;32.05;;
37431;SDS011;23292;51.300;6.252;2023-11-21T06:35:12;80.40;;;31.50;;
37431;SDS011;23292;51.300;6.252;2023-11-21T06:37:39;89.40;;;30.63;;
37431;SDS011;23292;51.300;6.252;2023-11-21T06:40:06;78.68;;;29.52;;
37431;SDS011;23292;51.300;6.252;2023-11-21T06:42:34;86.45;;;31.13;;
37431;SDS011;23292;51.300;6.252;2023-11-21T06:45:01;81.45;;;30.80;;
37431;SDS011;23292;51.300;6.252;2023-11-21T06:47:30;84.80;;;30.40;;
37431;SDS011;23292;51.300;6.252;2023-11-21T06:49:58;83.68;;;31.23;;
37431;SDS011;23292;51.300;6.252;2023-11-21T06:52:25;89.13;;;29.98;;
37431;SDS011;23292;51.300;6.252;2023-11-21T06:54:52;72.07;;;28.45;;
37431;SDS011;23292;51.300;6.252;2023-11-21T06:57:19;90.38;;;30.75;;
37431;SDS011;23292;51.300;6.252;2023-11-21T06:59:46;75.40;;;29.27;;
37431;SDS011;23292;51.300;6.252;2023-11-21T07:02:13;81.40;;;28.75;;
37431;SDS011;23292;51.300;6.252;2023-11-21T07:04:40;76.20;;;28.35;;
37431;SDS011;23292;51.300;6.252;2023-11-21T07:07:07;70.60;;;26.20;;
37431;SDS011;23292;51.300;6.252;2023-11-21T07:09:34;70.25;;;28.20;;
37431;SDS011;23292;51.300;6.252;2023-11-21T07:12:01;71.78;;;27.95;;
37431;SDS011;23292;51.300;6.252;2023-11-21T07:14:30;71.05;;;28.05;;
37431;SDS011;23292;51.300;6.252;2023-11-21T07:16:57;73.10;;;27.63;;
37431;SDS011;23292;51.300;6.252;2023-11-21T07:19:23;58.40;;;25.17;;
37431;SDS011;23292;51.300;6.252;2023-11-21T07:21:51;62.78;;;25.27;;
37431;SDS011;23292;51.300;6.252;2023-11-21T07:24:18;68.60;;;26.83;;
37431;SDS011;23292;51.300;6.252;2023-11-21T07:26:45;69.65;;;25.30;;
37431;SDS011;23292;51.300;6.252;2023-11-21T07:29:12;64.82;;;25.77;;
37431;SDS011;23292;51.300;6.252;2023-11-21T07:31:39;63.58;;;24.08;;
37431;SDS011;23292;51.300;6.252;2023-11-21T07:34:07;68.72;;;24.77;;
37431;SDS011;23292;51.300;6.252;2023-11-21T07:36:34;67.32;;;24.65;;
37431;SDS011;23292;51.300;6.252;2023-11-21T07:39:02;67.72;;;26.08;;
37431;SDS011;23292;51.300;6.252;2023-11-21T07:41:29;59.53;;;24.42;;
37431;SDS011;23292;51.300;6.252;2023-11-21T07:43:57;65.20;;;25.35;;
37431;SDS011;23292;51.300;6.252;2023-11-21T07:46:25;61.55;;;23.27;;
37431;SDS011;23292;51.300;6.252;2023-11-21T07:48:53;58.45;;;22.25;;
37431;SDS011;23292;51.300;6.252;2023-11-21T07:51:21;59.17;;;23.40;;
37431;SDS011;23292;51.300;6.252;2023-11-21T07:53:48;67.68;;;24.95;;
37431;SDS011;23292;51.300;6.252;2023-11-21T07:56:16;56.80;;;23.13;;
37431;SDS011;23292;51.300;6.252;2023-11-21T07:58:43;60.30;;;23.80;;
37431;SDS011;23292;51.300;6.252;2023-11-21T08:01:11;63.22;;;24.95;;
37431;SDS011;23292;51.300;6.252;2023-11-21T08:03:38;53.28;;;20.83;;
37431;SDS011;23292;51.300;6.252;2023-11-21T08:06:05;54.70;;;21.77;;
37431;SDS011;23292;51.300;6.252;2023-11-21T08:08:32;60.60;;;22.90;;
37431;SDS011;23292;51.300;6.252;2023-11-21T08:10:59;53.85;;;22.05;;
37431;SDS011;23292;51.300;6.252;2023-11-21T08:13:28;55.08;;;21.63;;
37431;SDS011;23292;51.300;6.252;2023-11-21T08:15:58;52.58;;;21.45;;
37431;SDS011;23292;51.300;6.252;2023-11-21T08:18:29;51.60;;;21.25;;
37431;SDS011;23292;51.300;6.252;2023-11-21T08:20:56;49.72;;;20.17;;
37431;SDS011;23292;51.300;6.252;2023-11-21T08:23:23;51.03;;;20.45;;
37431;SDS011;23292;51.300;6.252;2023-11-21T08:25:52;45.15;;;18.60;;
37431;SDS011;23292;51.300;6.252;2023-11-21T08:28:19;46.72;;;20.38;;
37431;SDS011;23292;51.300;6.252;2023-11-21T08:30:52;47.25;;;19.90;;
37431;SDS011;23292;51.300;6.252;2023-11-21T08:33:20;45.58;;;19.88;;
37431;SDS011;23292;51.300;6.252;2023-11-21T08:35:47;44.95;;;18.45;;
37431;SDS011;23292;51.300;6.252;2023-11-21T08:38:15;42.72;;;18.30;;
37431;SDS011;23292;51.300;6.252;2023-11-21T08:40:41;42.30;;;19.02;;
37431;SDS011;23292;51.300;6.252;2023-11-21T08:43:08;42.60;;;19.30;;
37431;SDS011;23292;51.300;6.252;2023-11-21T08:45:35;44.20;;;18.95;;
37431;SDS011;23292;51.300;6.252;2023-11-21T08:48:02;41.15;;;17.80;;
37431;SDS011;23292;51.300;6.252;2023-11-21T08:50:30;43.60;;;17.45;;
37431;SDS011;23292;51.300;6.252;2023-11-21T08:52:57;45.55;;;19.17;;
37431;SDS011;23292;51.300;6.252;2023-11-21T08:55:24;46.83;;;18.83;;
37431;SDS011;23292;51.300;6.252;2023-11-21T08:57:51;48.33;;;19.13;;
37431;SDS011;23292;51.300;6.252;2023-11-21T09:00:18;46.95;;;19.10;;
37431;SDS011;23292;51.300;6.252;2023-11-21T09:02:45;47.55;;;18.70;;
37431;SDS011;23292;51.300;6.252;2023-11-21T09:05:13;43.63;;;18.08;;
37431;SDS011;23292;51.300;6.252;2023-11-21T09:07:41;40.63;;;17.33;;
37431;SDS011;23292;51.300;6.252;2023-11-21T09:10:08;44.92;;;18.23;;
37431;SDS011;23292;51.300;6.252;2023-11-21T09:12:36;46.85;;;19.15;;
37431;SDS011;23292;51.300;6.252;2023-11-21T09:15:04;40.35;;;17.05;;
37431;SDS011;23292;51.300;6.252;2023-11-21T09:17:32;36.88;;;16.65;;
37431;SDS011;23292;51.300;6.252;2023-11-21T09:20:03;44.20;;;18.80;;
37431;SDS011;23292;51.300;6.252;2023-11-21T09:22:32;40.45;;;16.38;;
37431;SDS011;23292;51.300;6.252;2023-11-21T09:24:59;40.70;;;16.17;;
37431;SDS011;23292;51.300;6.252;2023-11-21T09:27:26;41.30;;;17.25;;
37431;SDS011;23292;51.300;6.252;2023-11-21T09:29:53;45.13;;;18.02;;
37431;SDS011;23292;51.300;6.252;2023-11-21T09:32:20;44.03;;;17.10;;
37431;SDS011;23292;51.300;6.252;2023-11-21T09:34:48;41.42;;;17.80;;
37431;SDS011;23292;51.300;6.252;2023-11-21T09:37:16;42.20;;;16.52;;
37431;SDS011;23292;51.300;6.252;2023-11-21T09:39:46;40.20;;;16.27;;
37431;SDS011;23292;51.300;6.252;2023-11-21T09:42:18;41.20;;;15.90;;
37431;SDS011;23292;51.300;6.252;2023-11-21T09:45:08;36.33;;;16.88;;
37431;SDS011;23292;51.300;6.252;2023-11-21T09:47:49;51.15;;;16.95;;
37431;SDS011;23292;51.300;6.252;2023-11-21T09:50:22;43.75;;;17.70;;
37431;SDS011;23292;51.300;6.252;2023-11-21T09:55:45;42.17;;;16.13;;
37431;SDS011;23292;51.300;6.252;2023-11-21T09:58:14;42.03;;;16.20;;
37431;SDS011;23292;51.300;6.252;2023-11-21T10:00:42;36.47;;;15.63;;
37431;SDS011;23292;51.300;6.252;2023-11-21T10:03:16;40.53;;;16.92;;
37431;SDS011;23292;51.300;6.252;2023-11-21T10:05:43;34.92;;;14.50;;
37431;SDS011;23292;51.300;6.252;2023-11-21T10:08:14;34.95;;;15.13;;
37431;SDS011;23292;51.300;6.252;2023-11-21T10:10:45;40.92;;;16.42;;
37431;SDS011;23292;51.300;6.252;2023-11-21T10:13:14;36.15;;;15.38;;
37431;SDS011;23292;51.300;6.252;2023-11-21T10:15:49;34.22;;;14.57;;
37431;SDS011;23292;51.300;6.252;2023-11-21T10:18:17;32.03;;;13.27;;
37431;SDS011;23292;51.300;6.252;2023-11-21T10:20:45;30.08;;;13.40;;
37431;SDS011;23292;51.300;6.252;2023-11-21T10:23:19;34.25;;;14.63;;
37431;SDS011;23292;51.300;6.252;2023-11-21T10:25:48;41.33;;;15.32;;
37431;SDS011;23292;51.300;6.252;2023-11-21T10:28:17;39.97;;;16.60;;
37431;SDS011;23292;51.300;6.252;2023-11-21T10:30:44;42.85;;;16.60;;
37431;SDS011;23292;51.300;6.252;2023-11-21T10:33:11;42.10;;;16.40;;
37431;SDS011;23292;51.300;6.252;2023-11-21T10:38:17;36.38;;;15.65;;
37431;SDS011;23292;51.300;6.252;2023-11-21T10:40:44;39.35;;;17.75;;
37431;SDS011;23292;51.300;6.252;2023-11-21T10:43:13;38.00;;;14.73;;
37431;SDS011;23292;51.300;6.252;2023-11-21T10:45:42;37.30;;;16.05;;
37431;SDS011;23292;51.300;6.252;2023-11-21T10:48:10;42.38;;;17.58;;
37431;SDS011;23292;51.300;6.252;2023-11-21T10:50:46;34.50;;;14.68;;
37431;SDS011;23292;51.300;6.252;2023-11-21T10:53:13;39.90;;;16.50;;
37431;SDS011;23292;51.300;6.252;2023-11-21T10:55:41;35.53;;;15.05;;
37431;SDS011;23292;51.300;6.252;2023-11-21T10:58:10;36.13;;;15.15;;
37431;SDS011;23292;51.300;6.252;2023-11-21T11:00:40;43.75;;;15.68;;
37431;SDS011;23292;51.300;6.252;2023-11-21T11:03:07;36.97;;;15.63;;
37431;SDS011;23292;51.300;6.252;2023-11-21T11:05:43;35.50;;;14.98;;
37431;SDS011;23292;51.300;6.252;2023-11-21T11:08:17;36.17;;;14.85;;
37431;SDS011;23292;51.300;6.252;2023-11-21T11:10:50;37.65;;;14.85;;
37431;SDS011;23292;51.300;6.252;2023-11-21T11:13:17;37.65;;;15.02;;
37431;SDS011;23292;51.300;6.252;2023-11-21T11:15:47;36.60;;;15.15;;
37431;SDS011;23292;51.300;6.252;2023-11-21T11:18:15;35.58;;;15.23;;
37431;SDS011;23292;51.300;6.252;2023-11-21T11:20:42;34.55;;;14.98;;
37431;SDS011;23292;51.300;6.252;2023-11-21T11:23:23;37.58;;;14.73;;
37431;SDS011;23292;51.300;6.252;2023-11-21T11:26:27;34.35;;;15.63;;
37431;SDS011;23292;51.300;6.252;2023-11-21T11:37:48;32.40;;;13.75;;
37431;SDS011;23292;51.300;6.252;2023-11-21T11:40:15;32.53;;;15.30;;
37431;SDS011;23292;51.300;6.252;2023-11-21T11:42:55;36.53;;;14.18;;
37431;SDS011;23292;51.300;6.252;2023-11-21T11:45:26;30.00;;;14.07;;
37431;SDS011;23292;51.300;6.252;2023-11-21T11:48:00;36.88;;;16.35;;
37431;SDS011;23292;51.300;6.252;2023-11-21T11:50:28;30.13;;;14.13;;
37431;SDS011;23292;51.300;6.252;2023-11-21T11:52:57;34.92;;;15.60;;
37431;SDS011;23292;51.300;6.252;2023-11-21T11:55:41;35.83;;;13.98;;
37431;SDS011;23292;51.300;6.252;2023-11-21T11:58:09;38.78;;;16.42;;
37431;SDS011;23292;51.300;6.252;2023-11-21T12:00:37;43.95;;;16.92;;
37431;SDS011;23292;51.300;6.252;2023-11-21T12:03:07;32.88;;;15.32;;
37431;SDS011;23292;51.300;6.252;2023-11-21T12:05:35;30.35;;;14.95;;
37431;SDS011;23292;51.300;6.252;2023-11-21T12:08:06;29.25;;;13.82;;
37431;SDS011;23292;51.300;6.252;2023-11-21T12:10:34;34.30;;;15.00;;
37431;SDS011;23292;51.300;6.252;2023-11-21T12:13:06;37.22;;;16.85;;
37431;SDS011;23292;51.300;6.252;2023-11-21T12:18:01;34.60;;;15.20;;
37431;SDS011;23292;51.300;6.252;2023-11-21T12:20:30;34.00;;;14.85;;
37431;SDS011;23292;51.300;6.252;2023-11-21T12:22:58;40.13;;;16.73;;
37431;SDS011;23292;51.300;6.252;2023-11-21T12:25:26;40.10;;;17.20;;
37431;SDS011;23292;51.300;6.252;2023-11-21T12:27:55;39.15;;;17.63;;
37431;SDS011;23292;51.300;6.252;2023-11-21T12:30:23;50.60;;;19.40;;
37431;SDS011;23292;51.300;6.252;2023-11-21T12:32:57;39.78;;;19.30;;
37431;SDS011;23292;51.300;6.252;2023-11-21T12:35:27;45.45;;;19.52;;
37431;SDS011;23292;51.300;6.252;2023-11-21T12:38:00;47.00;;;19.90;;
37431;SDS011;23292;51.300;6.252;2023-11-21T12:40:31;46.60;;;20.35;;
37431;SDS011;23292;51.300;6.252;2023-11-21T12:42:59;48.10;;;19.75;;
37431;SDS011;23292;51.300;6.252;2023-11-21T12:45:28;43.10;;;19.25;;
37431;SDS011;23292;51.300;6.252;2023-11-21T12:48:01;42.63;;;19.05;;
37431;SDS011;23292;51.300;6.252;2023-11-21T12:50:35;49.67;;;20.02;;
37431;SDS011;23292;51.300;6.252;2023-11-21T12:53:04;47.70;;;20.63;;
37431;SDS011;23292;51.300;6.252;2023-11-21T12:55:43;46.58;;;19.30;;
37431;SDS011;23292;51.300;6.252;2023-11-21T12:58:16;43.30;;;18.23;;
37431;SDS011;23292;51.300;6.252;2023-11-21T13:00:46;45.08;;;19.05;;
37431;SDS011;23292;51.300;6.252;2023-11-21T13:03:14;35.10;;;17.02;;
37431;SDS011;23292;51.300;6.252;2023-11-21T13:05:46;36.42;;;16.50;;
37431;SDS011;23292;51.300;6.252;2023-11-21T13:08:18;34.67;;;15.35;;
37431;SDS011;23292;51.300;6.252;2023-11-21T13:10:49;41.80;;;16.75;;
37431;SDS011;23292;51.300;6.252;2023-11-21T13:13:17;35.28;;;14.82;;
37431;SDS011;23292;51.300;6.252;2023-11-21T13:15:50;32.10;;;15.27;;
37431;SDS011;23292;51.300;6.252;2023-11-21T13:18:28;34.25;;;15.38;;
37431;SDS011;23292;51.300;6.252;2023-11-21T13:20:56;34.25;;;15.25;;
37431;SDS011;23292;51.300;6.252;2023-11-21T13:23:26;31.30;;;13.43;;
37431;SDS011;23292;51.300;6.252;2023-11-21T13:25:55;23.52;;;10.65;;
37431;SDS011;23292;51.300;6.252;2023-11-21T13:28:31;25.20;;;11.93;;
37431;SDS011;23292;51.300;6.252;2023-11-21T13:31:02;21.33;;;10.85;;
37431;SDS011;23292;51.300;6.252;2023-11-21T13:33:47;22.75;;;11.07;;
37431;SDS011;23292;51.300;6.252;2023-11-21T13:36:23;27.48;;;12.13;;
37431;SDS011;23292;51.300;6.252;2023-11-21T13:38:50;24.30;;;11.95;;
37431;SDS011;23292;51.300;6.252;2023-11-21T13:41:21;20.80;;;11.18;;
37431;SDS011;23292;51.300;6.252;2023-11-21T13:43:57;24.95;;;11.68;;
37431;SDS011;23292;51.300;6.252;2023-11-21T13:46:43;21.60;;;10.98;;
37431;SDS011;23292;51.300;6.252;2023-11-21T13:49:13;21.17;;;11.43;;
37431;SDS011;23292;51.300;6.252;2023-11-21T13:51:41;26.35;;;12.73;;
37431;SDS011;23292;51.300;6.252;2023-11-21T13:54:09;25.88;;;11.70;;
37431;SDS011;23292;51.300;6.252;2023-11-21T13:56:37;23.80;;;11.88;;
37431;SDS011;23292;51.300;6.252;2023-11-21T13:59:05;27.75;;;13.20;;
37431;SDS011;23292;51.300;6.252;2023-11-21T14:01:48;28.30;;;14.00;;
37431;SDS011;23292;51.300;6.252;2023-11-21T14:04:23;28.10;;;14.30;;
37431;SDS011;23292;51.300;6.252;2023-11-21T14:06:57;32.60;;;16.05;;
37431;SDS011;23292;51.300;6.252;2023-11-21T14:09:27;28.50;;;15.65;;
37431;SDS011;23292;51.300;6.252;2023-11-21T14:12:02;24.63;;;13.10;;
37431;SDS011;23292;51.300;6.252;2023-11-21T14:14:32;25.17;;;14.75;;
37431;SDS011;23292;51.300;6.252;2023-11-21T14:17:00;26.98;;;14.32;;
37431;SDS011;23292;51.300;6.252;2023-11-21T14:19:31;24.77;;;15.15;;
37431;SDS011;23292;51.300;6.252;2023-11-21T14:21:59;26.63;;;14.20;;
37431;SDS011;23292;51.300;6.252;2023-11-21T14:24:27;28.52;;;14.70;;
37431;SDS011;23292;51.300;6.252;2023-11-21T14:26:55;29.27;;;15.48;;
37431;SDS011;23292;51.300;6.252;2023-11-21T14:29:22;29.25;;;15.35;;
37431;SDS011;23292;51.300;6.252;2023-11-21T14:31:50;28.73;;;14.73;;
37431;SDS011;23292;51.300;6.252;2023-11-21T14:34:19;25.95;;;14.15;;
37431;SDS011;23292;51.300;6.252;2023-11-21T14:36:49;24.73;;;13.93;;
37431;SDS011;23292;51.300;6.252;2023-11-21T14:39:16;28.30;;;16.65;;
37431;SDS011;23292;51.300;6.252;2023-11-21T14:41:50;31.55;;;14.93;;
37431;SDS011;23292;51.300;6.252;2023-11-21T14:44:18;31.27;;;15.13;;
37431;SDS011;23292;51.300;6.252;2023-11-21T14:46:45;30.90;;;15.05;;
37431;SDS011;23292;51.300;6.252;2023-11-21T14:49:14;28.38;;;14.98;;
37431;SDS011;23292;51.300;6.252;2023-11-21T14:51:52;27.92;;;15.68;;